Main page
METAR-TAF:

METAR-TAF

Airports :

Dehradun Airport

Dehradun, India

latitude: 30-11-23N, longitude: 78-10-49E, elevation: 558 m

Current weather observation

The report was made 15 minutes ago, at 01:00 UTC
Wind 5 kt from the North
Temperature 23°C
Humidity 73%
Pressure 1012 hPa
Visibility: 3000 m
haze

METAR: VIDN 240100Z 36005KT 3000 HZ NSC 23/18 Q1012

Time: 06:45 (01:15 UTC)

Forecast

The report was made 14 hours and 15 minutes ago, at 11:00 UTC
Forecast valid from 23 at 12 UTC to 23 at 21 UTC
Wind 8 kt from the South/Southwest
Visibility: 5000 m
Scattered clouds at a height of 4000 ft
haze
Becoming
from 23 at 12 UTC to 23 at 14 UTC
Wind 6 kt from the North/Northeast
Visibility: 3000 m
Broken clouds at a height of 10000 ft
haze

TAF: VIDN 231100Z 2312/2321 21008KT 5000 HZ SCT040 BECMG 2312/2314 03006KT 3000 HZ BKN100

Weather observations and forecasts of more than 4000 airports (METAR and TAF reports).

The available stations are represented by yellow and red dots on the map.

Hover mouse over dot to see the name of the station.

Then click to see weather observations and forecasts.

To change the map : click on the green buttons with a black cross to zoom in, on the green button with a dash to zoom out, or on the green arrows for adjacent maps.


METAR-TAF: